createdAt,value
2022-08-11T00:00:57.000Z,157
2022-08-11T00:02:13.000Z,155
2022-08-11T00:03:29.000Z,156
2022-08-11T00:04:46.000Z,158
2022-08-11T00:06:02.000Z,158
2022-08-11T00:07:18.000Z,158
2022-08-11T00:08:34.000Z,158
2022-08-11T00:09:51.000Z,157
2022-08-11T00:11:07.000Z,156
2022-08-11T00:12:23.000Z,159
2022-08-11T00:13:38.000Z,159
2022-08-11T00:14:54.000Z,156
2022-08-11T00:16:10.000Z,158
2022-08-11T00:17:26.000Z,161
2022-08-11T00:18:41.000Z,159
2022-08-11T00:19:57.000Z,158
2022-08-11T00:21:13.000Z,159
2022-08-11T00:22:29.000Z,158
2022-08-11T00:23:45.000Z,159
2022-08-11T00:25:01.000Z,160
2022-08-11T00:26:18.000Z,161
2022-08-11T00:27:34.000Z,161
2022-08-11T00:28:50.000Z,161
2022-08-11T00:30:06.000Z,160
2022-08-11T00:31:23.000Z,157
2022-08-11T00:32:39.000Z,156
2022-08-11T00:33:55.000Z,155
2022-08-11T00:35:11.000Z,158
2022-08-11T00:36:27.000Z,160
2022-08-11T00:37:43.000Z,160
2022-08-11T00:38:59.000Z,158
2022-08-11T00:40:15.000Z,161
2022-08-11T00:41:31.000Z,159
2022-08-11T00:42:48.000Z,160
2022-08-11T00:44:04.000Z,157
2022-08-11T00:45:19.000Z,158
2022-08-11T00:46:34.000Z,159
2022-08-11T00:47:51.000Z,158
2022-08-11T00:49:06.000Z,161
2022-08-11T00:50:21.000Z,160
2022-08-11T00:51:37.000Z,159
2022-08-11T00:52:54.000Z,157
2022-08-11T00:54:10.000Z,157
2022-08-11T00:55:26.000Z,158
2022-08-11T00:56:42.000Z,160
2022-08-11T00:57:59.000Z,157
2022-08-11T00:59:15.000Z,158
2022-08-11T01:00:31.000Z,160
2022-08-11T01:01:47.000Z,159
2022-08-11T01:03:04.000Z,158
2022-08-11T01:04:20.000Z,159
2022-08-11T01:05:36.000Z,157
2022-08-11T01:06:51.000Z,157
2022-08-11T01:08:08.000Z,157
2022-08-11T01:09:24.000Z,157
2022-08-11T01:10:40.000Z,160
2022-08-11T01:11:56.000Z,160
2022-08-11T01:13:12.000Z,160
2022-08-11T01:14:29.000Z,160
2022-08-11T01:15:44.000Z,160
2022-08-11T01:16:59.000Z,159
2022-08-11T01:18:14.000Z,160
2022-08-11T01:19:30.000Z,158
2022-08-11T01:20:46.000Z,158
2022-08-11T01:22:02.000Z,159
2022-08-11T01:23:18.000Z,158
2022-08-11T01:24:35.000Z,160
2022-08-11T01:25:51.000Z,157
2022-08-11T01:27:07.000Z,161
2022-08-11T01:28:23.000Z,159
2022-08-11T01:29:40.000Z,160
2022-08-11T01:30:56.000Z,160
2022-08-11T01:32:12.000Z,159
2022-08-11T01:33:28.000Z,158
2022-08-11T01:34:45.000Z,160
2022-08-11T01:36:00.000Z,158
2022-08-11T01:37:16.000Z,160
2022-08-11T01:38:32.000Z,160
2022-08-11T01:39:48.000Z,159
2022-08-11T01:41:05.000Z,160
2022-08-11T01:42:21.000Z,158
2022-08-11T01:43:37.000Z,160
2022-08-11T01:44:52.000Z,160
2022-08-11T01:46:08.000Z,158
2022-08-11T01:47:24.000Z,160
2022-08-11T01:48:40.000Z,159
2022-08-11T01:49:56.000Z,160
2022-08-11T01:51:13.000Z,160
2022-08-11T01:52:28.000Z,160
2022-08-11T01:53:43.000Z,160
2022-08-11T01:54:59.000Z,157
2022-08-11T01:56:16.000Z,160
2022-08-11T01:57:32.000Z,160
2022-08-11T01:58:48.000Z,156
2022-08-11T02:00:04.000Z,158
2022-08-11T02:01:21.000Z,160
2022-08-11T02:02:37.000Z,160
2022-08-11T02:03:53.000Z,158
2022-08-11T02:05:09.000Z,160
2022-08-11T02:06:25.000Z,160
2022-08-11T02:07:42.000Z,160
2022-08-11T02:08:58.000Z,159
2022-08-11T02:10:13.000Z,160
2022-08-11T02:11:29.000Z,159
2022-08-11T02:12:46.000Z,157
2022-08-11T02:14:02.000Z,157
2022-08-11T02:15:18.000Z,159
2022-08-11T02:16:34.000Z,160
2022-08-11T02:17:51.000Z,161
2022-08-11T02:19:06.000Z,160
2022-08-11T02:20:21.000Z,160
2022-08-11T02:21:36.000Z,161
2022-08-11T02:22:52.000Z,160
2022-08-11T02:24:08.000Z,160
2022-08-11T02:25:24.000Z,160
2022-08-11T02:26:40.000Z,161
2022-08-11T02:27:57.000Z,160
2022-08-11T02:29:13.000Z,160
2022-08-11T02:30:29.000Z,159
2022-08-11T02:31:45.000Z,160
2022-08-11T02:33:01.000Z,161
2022-08-11T02:34:18.000Z,159
2022-08-11T02:35:34.000Z,161
2022-08-11T02:36:50.000Z,160
2022-08-11T02:38:06.000Z,159
2022-08-11T02:39:22.000Z,160
2022-08-11T02:40:38.000Z,156
2022-08-11T02:41:54.000Z,158
2022-08-11T02:43:10.000Z,159
2022-08-11T02:44:27.000Z,159
2022-08-11T02:45:43.000Z,160
2022-08-11T02:46:59.000Z,161
2022-08-11T02:48:14.000Z,159
2022-08-11T02:49:30.000Z,157
2022-08-11T02:50:45.000Z,158
2022-08-11T02:52:00.000Z,159
2022-08-11T02:53:16.000Z,160
2022-08-11T02:54:33.000Z,159
2022-08-11T02:55:49.000Z,159
2022-08-11T02:57:05.000Z,159
2022-08-11T02:58:21.000Z,160
2022-08-11T02:59:37.000Z,161
2022-08-11T03:00:54.000Z,160
2022-08-11T03:02:10.000Z,159
2022-08-11T03:03:26.000Z,159
2022-08-11T03:04:42.000Z,160
2022-08-11T03:05:58.000Z,158
2022-08-11T03:07:14.000Z,161
2022-08-11T03:08:30.000Z,159
2022-08-11T03:09:46.000Z,157
2022-08-11T03:11:03.000Z,158
2022-08-11T03:12:19.000Z,159
2022-08-11T03:13:35.000Z,158
2022-08-11T03:14:51.000Z,157
2022-08-11T03:16:08.000Z,158
2022-08-11T03:17:23.000Z,160
2022-08-11T03:18:38.000Z,161
2022-08-11T03:19:54.000Z,160
2022-08-11T03:21:10.000Z,160
2022-08-11T03:22:25.000Z,160
2022-08-11T03:23:41.000Z,161
2022-08-11T03:24:57.000Z,161
2022-08-11T03:26:14.000Z,161
2022-08-11T03:27:30.000Z,164
2022-08-11T03:28:46.000Z,163
2022-08-11T03:30:02.000Z,161
2022-08-11T03:31:18.000Z,163
2022-08-11T03:32:35.000Z,165
2022-08-11T03:33:51.000Z,165
2022-08-11T03:35:07.000Z,168
2022-08-11T03:36:23.000Z,166
2022-08-11T03:37:40.000Z,169
2022-08-11T03:38:55.000Z,170
2022-08-11T03:40:11.000Z,173
2022-08-11T03:41:27.000Z,176
2022-08-11T03:42:44.000Z,180
2022-08-11T03:44:00.000Z,142
2022-08-11T03:45:16.000Z,16
2022-08-11T03:46:32.000Z,19
2022-08-11T03:47:48.000Z,21
2022-08-11T03:49:03.000Z,27
2022-08-11T03:50:18.000Z,36
2022-08-11T03:51:33.000Z,39
2022-08-11T03:52:50.000Z,48
2022-08-11T03:54:06.000Z,54
2022-08-11T03:55:22.000Z,62
2022-08-11T03:56:38.000Z,74
2022-08-11T03:57:54.000Z,83
2022-08-11T03:59:11.000Z,100
2022-08-11T04:00:27.000Z,115
2022-08-11T04:01:43.000Z,134
2022-08-11T04:02:59.000Z,153
2022-08-11T04:04:16.000Z,175
2022-08-11T04:05:32.000Z,196
2022-08-11T04:06:48.000Z,223
2022-08-11T04:08:03.000Z,250
2022-08-11T04:09:20.000Z,279
2022-08-11T04:10:36.000Z,304
2022-08-11T04:11:52.000Z,339
2022-08-11T04:13:08.000Z,374
2022-08-11T04:14:25.000Z,403
2022-08-11T04:15:41.000Z,430
2022-08-11T04:16:57.000Z,464
2022-08-11T04:18:13.000Z,496
2022-08-11T04:19:29.000Z,530
2022-08-11T04:20:46.000Z,561
2022-08-11T04:22:02.000Z,596
2022-08-11T04:23:18.000Z,629
2022-08-11T04:24:33.000Z,664
2022-08-11T04:25:50.000Z,699
2022-08-11T04:27:06.000Z,735
2022-08-11T04:28:22.000Z,768
2022-08-11T04:29:38.000Z,804
2022-08-11T04:30:55.000Z,839
2022-08-11T04:32:11.000Z,873
2022-08-11T04:33:27.000Z,910
2022-08-11T04:34:43.000Z,943
2022-08-11T04:36:00.000Z,978
2022-08-11T04:37:16.000Z,1011
2022-08-11T04:38:32.000Z,1044
2022-08-11T04:39:48.000Z,1079
2022-08-11T04:41:03.000Z,1114
2022-08-11T04:42:20.000Z,1148
2022-08-11T04:43:36.000Z,1180
2022-08-11T04:44:52.000Z,1217
2022-08-11T04:46:08.000Z,1253
2022-08-11T04:47:25.000Z,1288
2022-08-11T04:48:41.000Z,1324
2022-08-11T04:49:57.000Z,1359
2022-08-11T04:51:13.000Z,1391
2022-08-11T04:52:30.000Z,1426
2022-08-11T04:53:46.000Z,1459
2022-08-11T04:55:02.000Z,1488
2022-08-11T04:56:18.000Z,1521
2022-08-11T04:57:34.000Z,1552
2022-08-11T04:58:50.000Z,1579
2022-08-11T05:00:06.000Z,1602
2022-08-11T05:01:22.000Z,1624
2022-08-11T05:02:38.000Z,1651
2022-08-11T05:03:55.000Z,1680
2022-08-11T05:05:11.000Z,1707
2022-08-11T05:06:27.000Z,1734
2022-08-11T05:07:42.000Z,1757
2022-08-11T05:08:58.000Z,1779
2022-08-11T05:10:14.000Z,1803
2022-08-11T05:11:30.000Z,1829
2022-08-11T05:12:46.000Z,1855
2022-08-11T05:14:03.000Z,1878
2022-08-11T05:15:19.000Z,1901
2022-08-11T05:16:34.000Z,1926
2022-08-11T05:17:49.000Z,1941
2022-08-11T05:19:06.000Z,1958
2022-08-11T05:20:22.000Z,1981
2022-08-11T05:21:38.000Z,2004
2022-08-11T05:22:54.000Z,2027
2022-08-11T05:24:11.000Z,2045
2022-08-11T05:25:27.000Z,2067
2022-08-11T05:26:43.000Z,2088
2022-08-11T05:27:59.000Z,2109
2022-08-11T05:29:15.000Z,2130
2022-08-11T05:30:32.000Z,2149
2022-08-11T05:31:48.000Z,2169
2022-08-11T05:33:04.000Z,2191
2022-08-11T05:34:19.000Z,2211
2022-08-11T05:35:36.000Z,2231
2022-08-11T05:36:52.000Z,2254
2022-08-11T05:38:08.000Z,2272
2022-08-11T05:39:24.000Z,2290
2022-08-11T05:40:41.000Z,2311
2022-08-11T05:41:57.000Z,2328
2022-08-11T05:43:12.000Z,2345
2022-08-11T05:44:27.000Z,2363
2022-08-11T05:45:44.000Z,2379
2022-08-11T05:47:00.000Z,2400
2022-08-11T05:48:16.000Z,2410
2022-08-11T05:49:32.000Z,2429
2022-08-11T05:50:48.000Z,2444
2022-08-11T05:52:05.000Z,2458
2022-08-11T05:53:21.000Z,2470
2022-08-11T05:54:37.000Z,2486
2022-08-11T05:55:53.000Z,2501
2022-08-11T05:57:10.000Z,2515
2022-08-11T05:58:26.000Z,2529
2022-08-11T05:59:42.000Z,2544
2022-08-11T06:00:57.000Z,2559
2022-08-11T06:02:14.000Z,2573
2022-08-11T06:03:30.000Z,2588
2022-08-11T06:04:46.000Z,2600
2022-08-11T06:06:02.000Z,2615
2022-08-11T06:07:19.000Z,2630
2022-08-11T06:08:34.000Z,2644
2022-08-11T06:09:49.000Z,2656
2022-08-11T06:11:05.000Z,2671
2022-08-11T06:12:22.000Z,2677
2022-08-11T06:13:38.000Z,2692
2022-08-11T06:14:54.000Z,2702
2022-08-11T06:16:10.000Z,2715
2022-08-11T06:17:26.000Z,2724
2022-08-11T06:18:43.000Z,2733
2022-08-11T06:19:59.000Z,2744
2022-08-11T06:21:15.000Z,2752
2022-08-11T06:22:31.000Z,2762
2022-08-11T06:23:48.000Z,2771
2022-08-11T06:25:04.000Z,2782
2022-08-11T06:26:19.000Z,2792
2022-08-11T06:27:35.000Z,2799
2022-08-11T06:28:52.000Z,2809
2022-08-11T06:30:08.000Z,2819
2022-08-11T06:31:24.000Z,2827
2022-08-11T06:32:40.000Z,2841
2022-08-11T06:33:57.000Z,2852
2022-08-11T06:35:13.000Z,2859
2022-08-11T06:36:29.000Z,2869
2022-08-11T06:37:45.000Z,2879
2022-08-11T06:39:01.000Z,2887
2022-08-11T06:40:18.000Z,2895
2022-08-11T06:41:34.000Z,2905
2022-08-11T06:42:49.000Z,2916
2022-08-11T06:44:05.000Z,2927
2022-08-11T06:45:22.000Z,2941
2022-08-11T06:46:38.000Z,2953
2022-08-11T06:47:53.000Z,2965
2022-08-11T06:49:08.000Z,2970
2022-08-11T06:50:24.000Z,2982
2022-08-11T06:51:39.000Z,2987
2022-08-11T06:52:55.000Z,2994
2022-08-11T06:54:11.000Z,3001
2022-08-11T06:55:28.000Z,3009
2022-08-11T06:56:44.000Z,3017
2022-08-11T06:58:00.000Z,3022
2022-08-11T06:59:16.000Z,3025
2022-08-11T07:00:33.000Z,3036
2022-08-11T07:01:49.000Z,3048
2022-08-11T07:03:05.000Z,3062
2022-08-11T07:04:21.000Z,3072
2022-08-11T07:05:37.000Z,3082
2022-08-11T07:06:54.000Z,3086
2022-08-11T07:08:10.000Z,3093
2022-08-11T07:09:25.000Z,3096
2022-08-11T07:10:41.000Z,3098
2022-08-11T07:11:58.000Z,3100
2022-08-11T07:13:14.000Z,3103
2022-08-11T07:14:30.000Z,3093
2022-08-11T07:15:46.000Z,3083
2022-08-11T07:17:02.000Z,3092
2022-08-11T07:18:17.000Z,3095
2022-08-11T07:19:32.000Z,3100
2022-08-11T07:20:48.000Z,3105
2022-08-11T07:22:04.000Z,3116
2022-08-11T07:23:20.000Z,3123
2022-08-11T07:24:36.000Z,3130
2022-08-11T07:25:52.000Z,3137
2022-08-11T07:27:09.000Z,3144
2022-08-11T07:28:25.000Z,3151
2022-08-11T07:29:41.000Z,3154
2022-08-11T07:30:57.000Z,3159
2022-08-11T07:32:13.000Z,3166
2022-08-11T07:33:30.000Z,3173
2022-08-11T07:34:46.000Z,3176
2022-08-11T07:36:02.000Z,3177
2022-08-11T07:37:18.000Z,3183
2022-08-11T07:38:34.000Z,3193
2022-08-11T07:39:50.000Z,3197
2022-08-11T07:41:06.000Z,3205
2022-08-11T07:42:22.000Z,3208
2022-08-11T07:43:39.000Z,3212
2022-08-11T07:44:55.000Z,3217
2022-08-11T07:46:11.000Z,3221
2022-08-11T07:47:27.000Z,3222
2022-08-11T07:48:44.000Z,3224
2022-08-11T07:50:00.000Z,3225
2022-08-11T07:51:16.000Z,3224
2022-08-11T07:52:32.000Z,3228
2022-08-11T07:53:48.000Z,3224
2022-08-11T07:55:04.000Z,3225
2022-08-11T07:56:20.000Z,3225
2022-08-11T07:57:36.000Z,3228
2022-08-11T07:58:52.000Z,3232
2022-08-11T08:00:09.000Z,3235
2022-08-11T08:01:24.000Z,3238
2022-08-11T08:02:39.000Z,3239
2022-08-11T08:03:54.000Z,3241
2022-08-11T08:05:10.000Z,3247
2022-08-11T08:06:26.000Z,3249
2022-08-11T08:07:42.000Z,3256
2022-08-11T08:08:58.000Z,3258
2022-08-11T08:10:15.000Z,3265
2022-08-11T08:11:31.000Z,3269
2022-08-11T08:12:47.000Z,3273
2022-08-11T08:14:03.000Z,3278
2022-08-11T08:15:20.000Z,3286
2022-08-11T08:16:36.000Z,3288
2022-08-11T08:17:52.000Z,3294
2022-08-11T08:19:08.000Z,3298
2022-08-11T08:20:24.000Z,3303
2022-08-11T08:21:40.000Z,3313
2022-08-11T08:22:56.000Z,3312
2022-08-11T08:24:12.000Z,3317
2022-08-11T08:25:28.000Z,3320
2022-08-11T08:26:45.000Z,3325
2022-08-11T08:28:01.000Z,3334
2022-08-11T08:29:17.000Z,3342
2022-08-11T08:30:32.000Z,3351
2022-08-11T08:31:48.000Z,3353
2022-08-11T08:33:03.000Z,3353
2022-08-11T08:34:19.000Z,3353
2022-08-11T08:35:34.000Z,3361
2022-08-11T08:36:51.000Z,3363
2022-08-11T08:38:07.000Z,3363
2022-08-11T08:39:23.000Z,3368
2022-08-11T08:40:39.000Z,3371
2022-08-11T08:41:56.000Z,3373
2022-08-11T08:43:12.000Z,3379
2022-08-11T08:44:28.000Z,3387
2022-08-11T08:45:44.000Z,3387
2022-08-11T08:47:00.000Z,3400
2022-08-11T08:48:17.000Z,3408
2022-08-11T08:49:33.000Z,3412
2022-08-11T08:50:49.000Z,3402
2022-08-11T08:52:04.000Z,3396
2022-08-11T08:53:21.000Z,3401
2022-08-11T08:54:37.000Z,3402
2022-08-11T08:55:53.000Z,3409
2022-08-11T08:57:09.000Z,3407
2022-08-11T08:58:26.000Z,3413
2022-08-11T08:59:41.000Z,3413
2022-08-11T09:00:56.000Z,3421
2022-08-11T09:02:12.000Z,3423
2022-08-11T09:03:28.000Z,3418
2022-08-11T09:04:43.000Z,3427
2022-08-11T09:05:59.000Z,3441
2022-08-11T09:07:15.000Z,3448
2022-08-11T09:08:32.000Z,3448
2022-08-11T09:09:48.000Z,3451
2022-08-11T09:11:04.000Z,3453
2022-08-11T09:12:20.000Z,3456
2022-08-11T09:13:37.000Z,3464
2022-08-11T09:14:53.000Z,3466
2022-08-11T09:16:09.000Z,3467
2022-08-11T09:17:25.000Z,3465
2022-08-11T09:18:41.000Z,3466
2022-08-11T09:19:58.000Z,3472
2022-08-11T09:21:13.000Z,3474
2022-08-11T09:22:29.000Z,3480
2022-08-11T09:23:45.000Z,3487
2022-08-11T09:25:02.000Z,3485
2022-08-11T09:26:18.000Z,3493
2022-08-11T09:27:34.000Z,3501
2022-08-11T09:28:50.000Z,3503
2022-08-11T09:30:07.000Z,3508
2022-08-11T09:31:23.000Z,3511
2022-08-11T09:32:39.000Z,3516
2022-08-11T09:33:55.000Z,3515
2022-08-11T09:35:11.000Z,3516
2022-08-11T09:36:28.000Z,3521
2022-08-11T09:37:43.000Z,3520
2022-08-11T09:38:59.000Z,3528
2022-08-11T09:40:15.000Z,3533
2022-08-11T09:41:32.000Z,3534
2022-08-11T09:42:48.000Z,3543
2022-08-11T09:44:04.000Z,3552
2022-08-11T09:45:20.000Z,3563
2022-08-11T09:46:37.000Z,3560
2022-08-11T09:47:53.000Z,3561
2022-08-11T09:49:09.000Z,3570
2022-08-11T09:50:25.000Z,3578
2022-08-11T09:51:42.000Z,3595
2022-08-11T09:52:58.000Z,3602
2022-08-11T09:54:13.000Z,3610
2022-08-11T09:55:29.000Z,3596
2022-08-11T09:56:45.000Z,3582
2022-08-11T09:58:02.000Z,3569
2022-08-11T09:59:18.000Z,3569
2022-08-11T10:00:34.000Z,3588
2022-08-11T10:01:50.000Z,3611
2022-08-11T10:03:07.000Z,3628
2022-08-11T10:04:23.000Z,3642
2022-08-11T10:05:39.000Z,3645
2022-08-11T10:06:54.000Z,3650
2022-08-11T10:08:10.000Z,3655
2022-08-11T10:09:26.000Z,3655
2022-08-11T10:10:41.000Z,3662
2022-08-11T10:11:56.000Z,3662
2022-08-11T10:13:13.000Z,3656
2022-08-11T10:14:29.000Z,3657
2022-08-11T10:15:45.000Z,3669
2022-08-11T10:17:01.000Z,3672
2022-08-11T10:18:18.000Z,3678
2022-08-11T10:19:34.000Z,3684
2022-08-11T10:20:50.000Z,3688
2022-08-11T10:22:06.000Z,3698
2022-08-11T10:23:23.000Z,3714
2022-08-11T10:24:39.000Z,3727
2022-08-11T10:25:55.000Z,3746
2022-08-11T10:27:11.000Z,3756
2022-08-11T10:28:27.000Z,3757
2022-08-11T10:29:43.000Z,3751
2022-08-11T10:30:59.000Z,3744
2022-08-11T10:32:15.000Z,3740
2022-08-11T10:33:31.000Z,3737
2022-08-11T10:34:48.000Z,3725
2022-08-11T10:36:04.000Z,3719
2022-08-11T10:37:19.000Z,3721
2022-08-11T10:38:34.000Z,3743
2022-08-11T10:39:51.000Z,3761
2022-08-11T10:41:07.000Z,3772
2022-08-11T10:42:22.000Z,3786
2022-08-11T10:43:38.000Z,3795
2022-08-11T10:44:54.000Z,3807
2022-08-11T10:46:10.000Z,3809
2022-08-11T10:47:26.000Z,3807
2022-08-11T10:49:59.000Z,3808
2022-08-11T10:51:15.000Z,3816
2022-08-11T10:52:31.000Z,3819
2022-08-11T10:53:47.000Z,3822
2022-08-11T10:55:03.000Z,3825
2022-08-11T10:56:20.000Z,3830
2022-08-11T10:57:36.000Z,3844
2022-08-11T10:58:52.000Z,3861
2022-08-11T11:00:08.000Z,3881
2022-08-11T11:01:24.000Z,3892
2022-08-11T11:02:40.000Z,3881
2022-08-11T11:03:56.000Z,3868
2022-08-11T11:05:12.000Z,3855
2022-08-11T11:06:29.000Z,3851
2022-08-11T11:07:45.000Z,3855
2022-08-11T11:09:01.000Z,3871
2022-08-11T11:10:16.000Z,3893
2022-08-11T11:11:32.000Z,3914
2022-08-11T11:12:47.000Z,3933
2022-08-11T11:14:02.000Z,3957
2022-08-11T11:15:18.000Z,3965
2022-08-11T11:16:35.000Z,3975
2022-08-11T11:17:51.000Z,3972
2022-08-11T11:19:07.000Z,3969
2022-08-11T11:20:23.000Z,3978
2022-08-11T11:21:39.000Z,3991
2022-08-11T11:22:56.000Z,4008
2022-08-11T11:24:12.000Z,4022
2022-08-11T11:25:28.000Z,4034
2022-08-11T11:26:44.000Z,4048
2022-08-11T11:28:01.000Z,4049
2022-08-11T11:29:17.000Z,4063
2022-08-11T11:30:32.000Z,4078
2022-08-11T11:31:48.000Z,4093
2022-08-11T11:33:05.000Z,4107
2022-08-11T11:34:21.000Z,4124
2022-08-11T11:35:37.000Z,4127
2022-08-11T11:36:52.000Z,4136
2022-08-11T11:38:09.000Z,4135
2022-08-11T11:39:25.000Z,4132
2022-08-11T11:40:41.000Z,4126
2022-08-11T11:41:57.000Z,4131
2022-08-11T11:43:13.000Z,4126
2022-08-11T11:44:30.000Z,4130
2022-08-11T11:45:46.000Z,4146
2022-08-11T11:47:02.000Z,4164
2022-08-11T11:48:18.000Z,4182
2022-08-11T11:49:35.000Z,4200
2022-08-11T11:50:51.000Z,4216
2022-08-11T11:52:07.000Z,4221
2022-08-11T11:53:22.000Z,4230
2022-08-11T11:54:39.000Z,4232
2022-08-11T11:55:55.000Z,4237
2022-08-11T11:57:11.000Z,4259
2022-08-11T11:58:27.000Z,4284
2022-08-11T11:59:44.000Z,4295
2022-08-11T12:01:00.000Z,4311
2022-08-11T12:02:15.000Z,4329
2022-08-11T12:03:30.000Z,4353
2022-08-11T12:04:46.000Z,4365
2022-08-11T12:06:01.000Z,4377
2022-08-11T12:07:17.000Z,4393
2022-08-11T12:08:33.000Z,4409
2022-08-11T12:09:50.000Z,4405
2022-08-11T12:11:06.000Z,4400
2022-08-11T12:12:22.000Z,4399
2022-08-11T12:13:38.000Z,4403
2022-08-11T12:14:54.000Z,4412
2022-08-11T12:16:11.000Z,4410
2022-08-11T12:17:27.000Z,4417
2022-08-11T12:18:43.000Z,4420
2022-08-11T12:19:59.000Z,4423
2022-08-11T12:21:16.000Z,4427
2022-08-11T12:22:31.000Z,4426
2022-08-11T12:23:47.000Z,4432
2022-08-11T12:25:03.000Z,4429
2022-08-11T12:26:20.000Z,4429
2022-08-11T12:27:36.000Z,4435
2022-08-11T12:28:52.000Z,4435
2022-08-11T12:30:08.000Z,4441
2022-08-11T12:31:25.000Z,4443
2022-08-11T12:32:41.000Z,4451
2022-08-11T12:33:57.000Z,4453
2022-08-11T12:35:13.000Z,4460
2022-08-11T12:36:29.000Z,4470
2022-08-11T12:37:46.000Z,4494
2022-08-11T12:39:01.000Z,4513
2022-08-11T12:40:17.000Z,4524
2022-08-11T12:41:33.000Z,4540
2022-08-11T12:42:50.000Z,4556
2022-08-11T12:44:06.000Z,4578
2022-08-11T12:45:22.000Z,4599
2022-08-11T12:46:38.000Z,4616
2022-08-11T12:47:55.000Z,4633
2022-08-11T12:49:11.000Z,4652
2022-08-11T12:50:27.000Z,4660
2022-08-11T12:51:43.000Z,4668
2022-08-11T12:53:00.000Z,4683
2022-08-11T12:54:16.000Z,4694
2022-08-11T12:55:31.000Z,4715
2022-08-11T12:56:47.000Z,4733
2022-08-11T12:58:02.000Z,4753
2022-08-11T12:59:19.000Z,4769
2022-08-11T13:00:34.000Z,4793
2022-08-11T13:01:49.000Z,4812
2022-08-11T13:03:05.000Z,4830
2022-08-11T13:04:22.000Z,4845
2022-08-11T13:05:38.000Z,4854
2022-08-11T13:06:54.000Z,4869
2022-08-11T13:08:10.000Z,4886
2022-08-11T13:09:27.000Z,4897
2022-08-11T13:10:43.000Z,4907
2022-08-11T13:11:59.000Z,4924
2022-08-11T13:13:15.000Z,4941
2022-08-11T13:14:32.000Z,4977
2022-08-11T13:15:48.000Z,5021
2022-08-11T13:17:04.000Z,5061
2022-08-11T13:18:19.000Z,5093
2022-08-11T13:19:36.000Z,5131
2022-08-11T13:20:52.000Z,5191
2022-08-11T13:22:08.000Z,5302
2022-08-11T13:23:24.000Z,5499
2022-08-11T13:24:40.000Z,5735
2022-08-11T13:25:57.000Z,6097
2022-08-11T13:27:13.000Z,2429
2022-08-11T13:28:29.000Z,6373
2022-08-11T13:29:44.000Z,73829
2022-08-11T13:31:00.000Z,74125
2022-08-11T13:32:15.000Z,74893
2022-08-11T13:33:30.000Z,73764
2022-08-11T13:34:46.000Z,73323
2022-08-11T13:36:03.000Z,73878
2022-08-11T13:37:19.000Z,74716
2022-08-11T13:38:35.000Z,72856
2022-08-11T13:39:51.000Z,72306
2022-08-11T13:41:08.000Z,39522
2022-08-11T13:42:24.000Z,38806
2022-08-11T13:43:40.000Z,73383
2022-08-11T13:44:56.000Z,72877
2022-08-11T13:46:13.000Z,72019
2022-08-11T13:47:29.000Z,71009
2022-08-11T13:48:45.000Z,44990
2022-08-11T13:50:00.000Z,43341
2022-08-11T13:51:16.000Z,45892
2022-08-11T13:52:33.000Z,43757
2022-08-11T13:53:49.000Z,72039
2022-08-11T13:55:05.000Z,73458
2022-08-11T13:56:21.000Z,73069
2022-08-11T13:57:38.000Z,70822
2022-08-11T13:58:54.000Z,71533
2022-08-11T14:00:10.000Z,72405
2022-08-11T14:01:26.000Z,73168
2022-08-11T14:02:42.000Z,73062
2022-08-11T14:03:57.000Z,72957
2022-08-11T14:05:13.000Z,74356
2022-08-11T14:06:29.000Z,74133
2022-08-11T14:07:45.000Z,73417
2022-08-11T14:09:00.000Z,72544
2022-08-11T14:10:16.000Z,72722
2022-08-11T14:11:32.000Z,75061
2022-08-11T14:12:49.000Z,74633
2022-08-11T14:14:05.000Z,73043
2022-08-11T14:15:21.000Z,72884
2022-08-11T14:16:37.000Z,73091
2022-08-11T14:17:54.000Z,72566
2022-08-11T14:19:10.000Z,73058
2022-08-11T14:20:26.000Z,74206
2022-08-11T14:21:42.000Z,76455
2022-08-11T14:22:58.000Z,78125
2022-08-11T14:24:15.000Z,75775
2022-08-11T14:25:30.000Z,74335
2022-08-11T14:26:46.000Z,74466
2022-08-11T14:28:02.000Z,77088
2022-08-11T14:29:19.000Z,80152
2022-08-11T14:30:35.000Z,80746
2022-08-11T14:31:51.000Z,78348
2022-08-11T14:33:07.000Z,77280
2022-08-11T14:34:23.000Z,77722
2022-08-11T14:35:38.000Z,78042
2022-08-11T14:36:53.000Z,77694
2022-08-11T14:38:08.000Z,76125
2022-08-11T14:39:25.000Z,74962
2022-08-11T14:40:41.000Z,75375
2022-08-11T14:41:57.000Z,74107
2022-08-11T14:43:13.000Z,74091
2022-08-11T14:44:30.000Z,75369
2022-08-11T14:45:46.000Z,74412
2022-08-11T14:47:02.000Z,76066
2022-08-11T14:48:18.000Z,74778
2022-08-11T14:49:34.000Z,73967
2022-08-11T14:50:51.000Z,73594
2022-08-11T14:52:07.000Z,71955
2022-08-11T14:53:23.000Z,33344
2022-08-11T14:54:38.000Z,36153
2022-08-11T14:55:55.000Z,37723
2022-08-11T14:57:11.000Z,37503
2022-08-11T14:58:27.000Z,34166
2022-08-11T14:59:43.000Z,34514
2022-08-11T15:01:00.000Z,37336
2022-08-11T15:02:16.000Z,33789
2022-08-11T15:03:32.000Z,37518
2022-08-11T15:04:48.000Z,33243
2022-08-11T15:06:05.000Z,35246
2022-08-11T15:07:21.000Z,38186
2022-08-11T15:08:37.000Z,36938
2022-08-11T15:09:53.000Z,40112
2022-08-11T15:11:09.000Z,33232
2022-08-11T15:12:25.000Z,28345
2022-08-11T15:13:41.000Z,33044
2022-08-11T15:14:57.000Z,34303
2022-08-11T15:16:13.000Z,29358
2022-08-11T15:17:30.000Z,39960
2022-08-11T15:18:46.000Z,34917
2022-08-11T15:20:02.000Z,33522
2022-08-11T15:21:18.000Z,32449
2022-08-11T15:22:35.000Z,27753
2022-08-11T15:23:51.000Z,25446
2022-08-11T15:25:07.000Z,33092
2022-08-11T15:26:23.000Z,30104
2022-08-11T15:27:39.000Z,32070
2022-08-11T15:28:54.000Z,30491
2022-08-11T15:30:10.000Z,32200
2022-08-11T15:31:26.000Z,31440
2022-08-11T15:32:43.000Z,30760
2022-08-11T15:33:58.000Z,31455
2022-08-11T15:35:13.000Z,33468
2022-08-11T15:36:29.000Z,34659
2022-08-11T15:37:46.000Z,33466
2022-08-11T15:39:02.000Z,23071
2022-08-11T15:40:18.000Z,78210
2022-08-11T15:41:34.000Z,70798
2022-08-11T15:42:50.000Z,36000
2022-08-11T15:44:07.000Z,38411
2022-08-11T15:45:23.000Z,35320
2022-08-11T15:46:39.000Z,30880
2022-08-11T15:47:55.000Z,33869
2022-08-11T15:49:12.000Z,33624
2022-08-11T15:50:28.000Z,30712
2022-08-11T15:51:43.000Z,30513
2022-08-11T15:52:59.000Z,31519
2022-08-11T15:54:16.000Z,33988
2022-08-11T15:55:32.000Z,28979
2022-08-11T15:56:48.000Z,32142
2022-08-11T15:58:04.000Z,33241
2022-08-11T15:59:21.000Z,31971
2022-08-11T16:00:37.000Z,31583
2022-08-11T16:01:52.000Z,33537
2022-08-11T16:03:07.000Z,36575
2022-08-11T16:04:24.000Z,32278
2022-08-11T16:05:40.000Z,35588
2022-08-11T16:06:56.000Z,29495
2022-08-11T16:08:11.000Z,32131
2022-08-11T16:09:27.000Z,33489
2022-08-11T16:10:43.000Z,32445
2022-08-11T16:11:59.000Z,33154
2022-08-11T16:13:15.000Z,28213
2022-08-11T16:14:31.000Z,35300
2022-08-11T16:15:48.000Z,31880
2022-08-11T16:17:04.000Z,26944
2022-08-11T16:18:20.000Z,25305
2022-08-11T16:19:36.000Z,31688
2022-08-11T16:20:53.000Z,39468
2022-08-11T16:22:09.000Z,31440
2022-08-11T16:23:25.000Z,30261
2022-08-11T16:24:41.000Z,29571
2022-08-11T16:25:58.000Z,33737
2022-08-11T16:27:13.000Z,32224
2022-08-11T16:28:29.000Z,27511
2022-08-11T16:29:45.000Z,28566
2022-08-11T16:31:02.000Z,29913
2022-08-11T16:32:18.000Z,32399
2022-08-11T16:33:34.000Z,34598
2022-08-11T16:34:50.000Z,26631
2022-08-11T16:36:06.000Z,29728
2022-08-11T16:37:21.000Z,30818
2022-08-11T16:38:37.000Z,29692
2022-08-11T16:39:53.000Z,26629
2022-08-11T16:41:09.000Z,28626
2022-08-11T16:42:26.000Z,27497
2022-08-11T16:43:42.000Z,24589
2022-08-11T16:44:58.000Z,23813
2022-08-11T16:46:14.000Z,25518
2022-08-11T16:47:31.000Z,26693
2022-08-11T16:48:46.000Z,26647
2022-08-11T16:50:01.000Z,24228
2022-08-11T16:51:17.000Z,19968
2022-08-11T16:52:34.000Z,16518
2022-08-11T16:53:50.000Z,16486
2022-08-11T16:55:06.000Z,15387
2022-08-11T16:56:22.000Z,16314